Sea Otter — WDH4842 — position and weather

sailwx.info

Track history (hours):
 
Tides and Currents Weather Stations Pressure Air Temp Water Temp Dewpoint Dewpoint Depression Visibility Wind Speed Wind Dir Waves Ship Positions

Sea Otter

Owner: GARBER BROTHERS INC, MORGAN CITY, LA. More information available from US FCC via Universal Licensing System and Coast Guard Vessel Documentation Center.

Last reported at 2017-Sep-21 02:23 UTC. Time now 2017-Sep-21 10:39 UTC.
Position N 29°22' W 090°44'.

Length 21 m.

Type: Other ship. MMSI: 367621940.

Date/timePositionNaut miles runAvg speedWind from/ knotsBaromVisibWave heightAir tempDewpointWater temp
2017-Sep-21 02:23N 29°22' W 090°44'0 0.0
2017-Sep-21 02:00N 29°22' W 090°44'0 0.0
2017-Sep-20 20:00N 29°22' W 090°44'0 0.0
2017-Sep-20 17:53N 29°22' W 090°44'0 0.0
2017-Sep-20 17:29N 29°22' W 090°44'0 0.0
2017-Sep-20 16:59N 29°22' W 090°44'0 0.0
2017-Sep-20 16:26N 29°22' W 090°44'0 0.0
2017-Sep-20 15:38N 29°22' W 090°44'2 0.1
2017-Sep-19 23:19N 29°24' W 090°44'2 6.0
2017-Sep-19 23:00N 29°24' W 090°46'2 4.8
2017-Sep-19 22:30N 29°25' W 090°49'  
2017-Sep-15 17:11N 29°25' W 090°47'3 5.9
2017-Sep-15 16:44N 29°23' W 090°44'2 0.0
2017-Sep-14 08:29N 29°22' W 090°44'0 0.0
2017-Sep-14 08:00N 29°22' W 090°44'0 0.0
2017-Sep-14 07:30N 29°22' W 090°44'0 0.0
2017-Sep-14 06:50N 29°22' W 090°44'0 0.0
2017-Sep-14 06:05N 29°22' W 090°44'0 0.0
2017-Sep-14 04:21N 29°22' W 090°44'2 4.4
2017-Sep-14 03:58N 29°24' W 090°44'3 4.7
2017-Sep-14 03:23N 29°25' W 090°47'2 4.5
2017-Sep-14 02:59N 29°25' W 090°49'2 3.7
2017-Sep-14 02:30N 29°24' W 090°51'2 3.5
2017-Sep-14 02:00N 29°24' W 090°52'9 0.2
2017-Sep-12 13:26N 29°18' W 091°00'0 0.0
2017-Sep-12 13:00N 29°18' W 091°00'0 0.0
2017-Sep-12 04:44N 29°18' W 091°00'  
Track history (hours):
 
Tides and Currents Weather Stations Pressure Air Temp Water Temp Dewpoint Dewpoint Depression Visibility Wind Speed Wind Dir Waves Ship Positions

Sea Otter

Owner: GARBER BROTHERS INC, MORGAN CITY, LA. More information available from US FCC via Universal Licensing System and Coast Guard Vessel Documentation Center.

Last reported at 2017-Sep-21 02:23 UTC. Time now 2017-Sep-21 10:39 UTC.
Position N 29°22' W 090°44'.

Length 21 m.

Type: Other ship. MMSI: 367621940.

Date/timePositionNaut miles runAvg speedWind from/ knotsBaromVisibWave heightAir tempDewpointWater temp
2017-Sep-21 02:23N 29°22' W 090°44'0 0.0
2017-Sep-21 02:00N 29°22' W 090°44'0 0.0
2017-Sep-20 20:00N 29°22' W 090°44'0 0.0
2017-Sep-20 17:53N 29°22' W 090°44'0 0.0
2017-Sep-20 17:29N 29°22' W 090°44'0 0.0
2017-Sep-20 16:59N 29°22' W 090°44'0 0.0
2017-Sep-20 16:26N 29°22' W 090°44'0 0.0
2017-Sep-20 15:38N 29°22' W 090°44'2 0.1
2017-Sep-19 23:19N 29°24' W 090°44'2 6.0
2017-Sep-19 23:00N 29°24' W 090°46'2 4.8
2017-Sep-19 22:30N 29°25' W 090°49'  
2017-Sep-15 17:11N 29°25' W 090°47'3 5.9
2017-Sep-15 16:44N 29°23' W 090°44'2 0.0
2017-Sep-14 08:29N 29°22' W 090°44'0 0.0
2017-Sep-14 08:00N 29°22' W 090°44'0 0.0
2017-Sep-14 07:30N 29°22' W 090°44'0 0.0
2017-Sep-14 06:50N 29°22' W 090°44'0 0.0
2017-Sep-14 06:05N 29°22' W 090°44'0 0.0
2017-Sep-14 04:21N 29°22' W 090°44'2 4.4
2017-Sep-14 03:58N 29°24' W 090°44'3 4.7
2017-Sep-14 03:23N 29°25' W 090°47'2 4.5
2017-Sep-14 02:59N 29°25' W 090°49'2 3.7
2017-Sep-14 02:30N 29°24' W 090°51'2 3.5
2017-Sep-14 02:00N 29°24' W 090°52'9 0.2
2017-Sep-12 13:26N 29°18' W 091°00'0 0.0
2017-Sep-12 13:00N 29°18' W 091°00'0 0.0
2017-Sep-12 04:44N 29°18' W 091°00'  

Dump ship's entire track history